createdAt,value
2022-09-23T00:01:01.573Z,1.92
2022-09-23T00:03:30.737Z,1.90
2022-09-23T00:06:01.869Z,2.17
2022-09-23T00:08:29.177Z,1.70
2022-09-23T00:10:56.457Z,1.70
2022-09-23T00:13:24.876Z,2.00
2022-09-23T00:15:51.688Z,1.67
2022-09-23T00:18:18.360Z,1.88
2022-09-23T00:20:45.058Z,1.55
2022-09-23T00:23:11.520Z,2.15
2022-09-23T00:25:37.940Z,1.60
2022-09-23T00:28:04.434Z,1.75
2022-09-23T00:30:32.404Z,1.40
2022-09-23T00:32:58.887Z,1.60
2022-09-23T00:35:25.491Z,2.30
2022-09-23T00:37:52.015Z,1.40
2022-09-23T00:40:18.689Z,1.63
2022-09-23T00:42:47.787Z,1.60
2022-09-23T00:45:14.859Z,1.55
2022-09-23T00:47:56.481Z,1.60
2022-09-23T00:50:26.567Z,1.38
2022-09-23T00:52:56.722Z,1.60
2022-09-23T00:55:28.575Z,1.60
2022-09-23T00:57:58.302Z,1.70
2022-09-23T01:00:25.035Z,1.60
2022-09-23T01:02:51.764Z,1.67
2022-09-23T01:05:19.263Z,1.55
2022-09-23T01:07:46.438Z,1.58
2022-09-23T01:10:16.753Z,1.80
2022-09-23T01:12:59.643Z,1.58
2022-09-23T01:15:39.739Z,2.35
2022-09-23T01:18:31.178Z,1.33
2022-09-23T01:21:14.432Z,1.50
2022-09-23T01:24:02.729Z,1.60
2022-09-23T01:26:50.178Z,1.75
2022-09-23T01:29:41.350Z,1.55
2022-09-23T01:32:17.095Z,1.58
2022-09-23T01:35:00.114Z,1.58
2022-09-23T01:38:11.921Z,1.50
2022-09-23T01:40:59.490Z,1.95
2022-09-23T01:43:33.999Z,1.60
2022-09-23T01:46:05.862Z,1.52
2022-09-23T01:48:39.132Z,1.90
2022-09-23T01:51:15.361Z,2.00
2022-09-23T01:53:49.657Z,1.98
2022-09-23T01:56:25.841Z,1.65
2022-09-23T01:59:30.623Z,1.50
2022-09-23T02:02:06.167Z,1.48
2022-09-23T02:04:48.002Z,1.47
2022-09-23T02:07:22.223Z,1.55
2022-09-23T02:09:57.786Z,1.70
2022-09-23T02:12:28.532Z,1.40
2022-09-23T02:15:04.124Z,1.55
2022-09-23T02:17:39.631Z,2.03
2022-09-23T02:20:07.302Z,1.80
2022-09-23T02:22:45.979Z,1.77
2022-09-23T02:25:12.553Z,1.90
2022-09-23T02:27:54.489Z,1.58
2022-09-23T02:30:27.094Z,1.52
2022-09-23T02:33:04.503Z,1.60
2022-09-23T02:35:37.109Z,1.55
2022-09-23T02:38:31.497Z,1.90
2022-09-23T02:41:09.807Z,2.10
2022-09-23T02:43:46.131Z,1.75
2022-09-23T02:46:13.072Z,1.55
2022-09-23T02:48:45.297Z,1.70
2022-09-23T02:51:13.047Z,1.60
2022-09-23T02:53:40.038Z,1.42
2022-09-23T02:56:19.553Z,1.92
2022-09-23T02:58:51.809Z,1.10
2022-09-23T03:01:38.423Z,1.45
2022-09-23T03:04:18.052Z,1.40
2022-09-23T03:06:49.638Z,1.50
2022-09-23T03:09:43.713Z,1.80
2022-09-23T03:12:22.240Z,1.65
2022-09-23T03:15:12.285Z,1.50
2022-09-23T03:17:50.160Z,1.58
2022-09-23T03:20:26.048Z,2.40
2022-09-23T03:23:00.854Z,1.65
2022-09-23T03:25:31.767Z,1.50
2022-09-23T03:28:00.869Z,1.30
2022-09-23T03:30:28.554Z,1.60
2022-09-23T03:32:55.931Z,1.30
2022-09-23T03:35:27.848Z,1.67
2022-09-23T03:38:03.434Z,1.70
2022-09-23T03:40:42.011Z,1.73
2022-09-23T03:43:09.816Z,2.58
2022-09-23T03:45:36.482Z,3.10
2022-09-23T03:48:03.150Z,3.00
2022-09-23T03:50:29.685Z,2.58
2022-09-23T03:52:56.199Z,2.00
2022-09-23T03:55:22.655Z,2.00
2022-09-23T03:57:49.243Z,2.20
2022-09-23T04:00:16.007Z,2.67
2022-09-23T04:02:43.272Z,2.42
2022-09-23T04:05:11.509Z,2.38
2022-09-23T04:07:38.361Z,1.73
2022-09-23T04:10:06.128Z,1.60
2022-09-23T04:12:32.806Z,2.00
2022-09-23T04:14:59.278Z,1.80
2022-09-23T04:17:25.721Z,1.75
2022-09-23T04:19:52.240Z,1.90
2022-09-23T04:22:18.687Z,1.83
2022-09-23T04:24:45.125Z,2.97
2022-09-23T04:27:11.607Z,2.72
2022-09-23T04:29:38.097Z,3.08
2022-09-23T04:32:04.699Z,6.18
2022-09-23T04:34:31.189Z,6.45
2022-09-23T04:36:57.637Z,5.45
2022-09-23T04:39:24.063Z,5.25
2022-09-23T04:41:50.497Z,3.13
2022-09-23T04:44:17.108Z,2.90
2022-09-23T04:46:47.273Z,3.05
2022-09-23T04:49:14.669Z,3.05
2022-09-23T04:51:43.388Z,2.80
2022-09-23T04:54:12.087Z,2.20
2022-09-23T04:56:39.705Z,2.30
2022-09-23T04:59:07.061Z,2.25
2022-09-23T05:01:35.055Z,2.05
2022-09-23T05:04:05.282Z,2.45
2022-09-23T05:06:34.471Z,2.85
2022-09-23T05:09:02.724Z,2.33
2022-09-23T05:11:31.373Z,2.90
2022-09-23T05:13:58.614Z,5.53
2022-09-23T05:16:26.141Z,7.65
2022-09-23T05:18:53.113Z,3.83
2022-09-23T05:21:22.759Z,4.22
2022-09-23T05:23:55.254Z,5.47
2022-09-23T05:26:27.175Z,4.25
2022-09-23T05:28:54.399Z,3.35
2022-09-23T05:31:23.334Z,4.68
2022-09-23T05:33:58.691Z,4.00
2022-09-23T05:36:27.462Z,4.53
2022-09-23T05:38:54.635Z,4.30
2022-09-23T05:41:25.215Z,3.85
2022-09-23T05:43:53.186Z,5.80
2022-09-23T05:46:22.404Z,5.20
2022-09-23T05:48:49.184Z,3.75
2022-09-23T05:51:30.104Z,4.28
2022-09-23T05:53:58.262Z,6.05
2022-09-23T05:56:27.382Z,7.13
2022-09-23T05:58:55.659Z,12.35
2022-09-23T06:01:27.885Z,7.13
2022-09-23T06:03:56.049Z,5.40
2022-09-23T06:06:27.801Z,6.65
2022-09-23T06:08:54.315Z,4.65
2022-09-23T06:11:21.470Z,4.68
2022-09-23T06:13:48.540Z,4.78
2022-09-23T06:16:15.969Z,4.38
2022-09-23T06:18:45.121Z,4.20
2022-09-23T06:21:16.734Z,4.55
2022-09-23T06:23:44.730Z,4.70
2022-09-23T06:26:13.525Z,5.13
2022-09-23T06:28:41.611Z,5.38
2022-09-23T06:31:13.489Z,5.32
2022-09-23T06:33:40.535Z,5.03
2022-09-23T06:36:08.064Z,5.10
2022-09-23T06:38:35.577Z,5.10
2022-09-23T06:41:03.424Z,5.20
2022-09-23T06:43:30.511Z,4.97
2022-09-23T06:46:01.543Z,5.28
2022-09-23T06:48:28.777Z,4.90
2022-09-23T06:50:59.439Z,4.78
2022-09-23T06:53:25.899Z,4.70
2022-09-23T06:56:04.066Z,5.13
2022-09-23T06:58:31.937Z,4.85
2022-09-23T07:01:09.879Z,4.70
2022-09-23T07:03:37.045Z,5.03
2022-09-23T07:06:04.950Z,5.78
2022-09-23T07:08:33.653Z,5.75
2022-09-23T07:11:02.374Z,6.18
2022-09-23T07:13:30.028Z,4.28
2022-09-23T07:16:02.098Z,4.57
2022-09-23T07:18:36.970Z,3.85
2022-09-23T07:21:08.864Z,4.15
2022-09-23T07:23:35.507Z,4.18
2022-09-23T07:26:02.071Z,3.47
2022-09-23T07:28:29.132Z,4.10
2022-09-23T07:31:00.310Z,4.55
2022-09-23T07:33:33.135Z,3.30
2022-09-23T07:36:04.950Z,3.67
2022-09-23T07:38:31.455Z,3.78
2022-09-23T07:41:18.179Z,4.07
2022-09-23T07:43:45.583Z,3.75
2022-09-23T07:46:15.086Z,3.63
2022-09-23T07:48:42.824Z,3.88
2022-09-23T07:51:13.781Z,3.45
2022-09-23T07:53:40.343Z,3.50
2022-09-23T07:56:06.875Z,3.28
2022-09-23T07:58:34.618Z,2.90
2022-09-23T08:01:03.795Z,2.90
2022-09-23T08:03:30.267Z,2.60
2022-09-23T08:06:04.470Z,2.63
2022-09-23T08:08:31.082Z,2.88
2022-09-23T08:11:02.604Z,2.85
2022-09-23T08:13:29.093Z,2.60
2022-09-23T08:15:55.783Z,2.60
2022-09-23T08:18:22.341Z,3.05
2022-09-23T08:20:48.793Z,2.35
2022-09-23T08:23:16.713Z,2.53
2022-09-23T08:25:47.386Z,2.65
2022-09-23T08:28:16.745Z,2.10
2022-09-23T08:30:44.305Z,2.55
2022-09-23T08:33:12.253Z,2.10
2022-09-23T08:35:38.814Z,2.35
2022-09-23T08:38:06.523Z,2.38
2022-09-23T08:40:37.153Z,2.70
2022-09-23T08:43:07.138Z,2.42
2022-09-23T08:45:36.601Z,2.00
2022-09-23T08:48:13.199Z,2.08
2022-09-23T08:50:47.004Z,1.67
2022-09-23T08:53:26.733Z,2.28
2022-09-23T08:55:55.685Z,2.03
2022-09-23T08:58:40.916Z,1.88
2022-09-23T09:01:23.284Z,2.78
2022-09-23T09:03:58.817Z,2.30
2022-09-23T09:06:52.450Z,2.53
2022-09-23T09:09:24.590Z,2.50
2022-09-23T09:11:55.401Z,2.53
2022-09-23T09:14:34.330Z,2.33
2022-09-23T09:17:05.195Z,2.30
2022-09-23T09:19:57.578Z,2.38
2022-09-23T09:22:42.048Z,2.10
2022-09-23T09:25:24.166Z,2.40
2022-09-23T09:27:52.072Z,2.28
2022-09-23T09:30:19.518Z,2.30
2022-09-23T09:32:59.149Z,2.20
2022-09-23T09:35:37.687Z,2.13
2022-09-23T09:38:05.784Z,2.00
2022-09-23T09:40:35.122Z,1.98
2022-09-23T09:43:05.170Z,2.20
2022-09-23T09:45:59.715Z,1.65
2022-09-23T09:48:53.728Z,2.20
2022-09-23T09:51:22.415Z,2.08
2022-09-23T09:53:52.565Z,2.22
2022-09-23T09:56:34.517Z,1.60
2022-09-23T09:59:08.281Z,1.42
2022-09-23T10:01:35.551Z,2.17
2022-09-23T10:04:05.788Z,1.80
2022-09-23T10:06:36.107Z,2.13
2022-09-23T10:09:08.476Z,1.50
2022-09-23T10:11:35.122Z,1.55
2022-09-23T10:14:12.517Z,1.73
2022-09-23T10:16:42.837Z,1.55
2022-09-23T10:19:29.229Z,1.77
2022-09-23T10:22:00.136Z,1.70
2022-09-23T10:24:30.505Z,1.52
2022-09-23T10:27:01.830Z,1.70
2022-09-23T10:29:40.131Z,1.85
2022-09-23T10:32:28.125Z,1.75
2022-09-23T10:35:14.836Z,1.95
2022-09-23T10:37:48.307Z,1.98
2022-09-23T10:40:44.031Z,1.80
2022-09-23T10:44:05.190Z,2.17
2022-09-23T10:46:54.472Z,1.83
2022-09-23T10:49:28.583Z,1.75
2022-09-23T10:52:14.966Z,1.98
2022-09-23T10:54:56.500Z,1.85
2022-09-23T10:57:49.629Z,1.50
2022-09-23T11:00:22.241Z,1.60
2022-09-23T11:03:23.730Z,1.55
2022-09-23T11:06:25.035Z,1.70
2022-09-23T11:09:11.772Z,1.25
2022-09-23T11:12:14.208Z,1.58
2022-09-23T11:15:09.361Z,1.50
2022-09-23T11:17:45.428Z,1.70
2022-09-23T11:20:32.055Z,1.65
2022-09-23T11:23:13.666Z,1.25
2022-09-23T11:26:14.144Z,1.65
2022-09-23T11:28:49.541Z,1.35
2022-09-23T11:31:36.338Z,1.40
2022-09-23T11:34:22.247Z,1.20
2022-09-23T11:37:05.191Z,1.20
2022-09-23T11:39:37.932Z,1.30
2022-09-23T11:42:12.340Z,1.70
2022-09-23T11:44:44.520Z,1.52
2022-09-23T11:47:19.615Z,1.40
2022-09-23T11:49:51.883Z,1.10
2022-09-23T11:52:30.634Z,1.25
2022-09-23T11:55:22.669Z,1.30
2022-09-23T11:58:23.121Z,1.35
2022-09-23T12:01:15.133Z,1.30
2022-09-23T12:04:15.540Z,1.30
2022-09-23T12:06:59.627Z,1.27
2022-09-23T12:09:57.204Z,1.50
2022-09-23T12:12:48.834Z,1.58
2022-09-23T12:15:45.951Z,1.10
2022-09-23T12:18:35.788Z,1.10
2022-09-23T12:21:48.674Z,1.40
2022-09-23T12:24:27.363Z,1.40
2022-09-23T12:26:58.327Z,1.38
2022-09-23T12:31:59.921Z,1.33
2022-09-23T12:34:32.462Z,1.17
2022-09-23T12:37:05.682Z,1.25
2022-09-23T12:39:37.336Z,1.30
2022-09-23T12:42:11.298Z,1.40
2022-09-23T12:44:43.347Z,1.65
2022-09-23T12:47:25.014Z,1.10
2022-09-23T12:49:58.162Z,1.20
2022-09-23T12:52:31.434Z,1.58
2022-09-23T12:55:33.173Z,1.67
2022-09-23T12:57:59.621Z,1.40
2022-09-23T13:00:29.852Z,1.50
2022-09-23T13:03:19.589Z,1.40
2022-09-23T13:08:41.639Z,1.20
2022-09-23T13:11:21.054Z,1.45
2022-09-23T13:13:49.798Z,1.20
2022-09-23T13:16:40.664Z,1.33
2022-09-23T13:19:12.903Z,1.20
2022-09-23T13:21:42.383Z,1.80
2022-09-23T13:24:33.069Z,1.38
2022-09-23T13:27:00.183Z,1.80
2022-09-23T13:29:33.104Z,1.40
2022-09-23T13:32:02.036Z,1.40
2022-09-23T13:34:34.612Z,1.10
2022-09-23T13:37:49.674Z,1.20
2022-09-23T13:40:25.799Z,1.27
2022-09-23T13:43:04.554Z,1.10
2022-09-23T13:45:32.065Z,1.60
2022-09-23T13:48:03.207Z,1.63
2022-09-23T13:50:34.734Z,1.20
2022-09-23T13:53:06.404Z,1.17
2022-09-23T13:55:38.716Z,1.80
2022-09-23T13:58:13.555Z,1.40
2022-09-23T14:00:40.367Z,1.30
2022-09-23T14:03:36.506Z,1.10
2022-09-23T14:06:10.832Z,1.10
2022-09-23T14:08:39.455Z,1.75
2022-09-23T14:11:06.250Z,1.30
2022-09-23T14:13:40.315Z,1.30
2022-09-23T14:16:11.459Z,1.50
2022-09-23T14:18:45.184Z,1.13
2022-09-23T14:21:37.562Z,1.23
2022-09-23T14:24:33.066Z,1.45
2022-09-23T14:27:06.761Z,1.45
2022-09-23T14:29:39.586Z,1.20
2022-09-23T14:32:13.385Z,1.25
2022-09-23T14:34:40.465Z,1.70
2022-09-23T14:37:42.759Z,1.67
2022-09-23T14:40:21.338Z,1.40
2022-09-23T14:43:00.158Z,1.60
2022-09-23T14:45:30.248Z,1.35
2022-09-23T14:47:59.913Z,1.58
2022-09-23T14:50:47.038Z,1.50
2022-09-23T14:53:22.763Z,1.50
2022-09-23T14:55:53.327Z,1.38
2022-09-23T14:58:25.577Z,1.40
2022-09-23T15:00:54.458Z,1.50
2022-09-23T15:03:21.533Z,1.70
2022-09-23T15:05:50.865Z,1.50
2022-09-23T15:08:22.956Z,1.80
2022-09-23T15:10:50.311Z,1.70
2022-09-23T15:13:21.252Z,3.90
2022-09-23T15:15:48.004Z,1.70
2022-09-23T15:18:19.003Z,1.98
2022-09-23T15:20:54.322Z,1.42
2022-09-23T15:23:48.916Z,1.40
2022-09-23T15:26:18.602Z,1.77
2022-09-23T15:28:45.902Z,1.60
2022-09-23T15:31:17.055Z,1.70
2022-09-23T15:33:44.813Z,1.85
2022-09-23T15:36:19.595Z,1.50
2022-09-23T15:38:47.031Z,1.52
2022-09-23T15:41:14.441Z,1.55
2022-09-23T15:43:41.846Z,1.30
2022-09-23T15:46:18.106Z,2.10
2022-09-23T15:48:58.466Z,1.65
2022-09-23T15:51:26.655Z,1.40
2022-09-23T15:53:54.843Z,1.55
2022-09-23T15:56:21.982Z,1.55
2022-09-23T15:58:48.597Z,2.00
2022-09-23T16:01:23.812Z,1.83
2022-09-23T16:03:50.369Z,1.58
2022-09-23T16:06:16.787Z,1.25
2022-09-23T16:08:43.256Z,1.52
2022-09-23T16:11:21.787Z,1.70
2022-09-23T16:13:48.242Z,1.42
2022-09-23T16:16:14.711Z,1.52
2022-09-23T16:18:43.712Z,1.40
2022-09-23T16:21:13.545Z,1.40
2022-09-23T16:23:43.661Z,3.03
2022-09-23T16:26:17.621Z,2.97
2022-09-23T16:28:45.824Z,1.92
2022-09-23T16:31:16.185Z,1.38
2022-09-23T16:33:43.576Z,1.55
2022-09-23T16:36:27.782Z,1.50
2022-09-23T16:39:04.161Z,1.40
2022-09-23T16:41:34.055Z,1.50
2022-09-23T16:44:04.360Z,1.50
2022-09-23T16:46:32.242Z,1.70
2022-09-23T16:49:00.329Z,1.75
2022-09-23T16:51:37.898Z,2.17
2022-09-23T16:54:12.607Z,1.80
2022-09-23T16:56:44.121Z,1.92
2022-09-23T16:59:12.371Z,2.00
2022-09-23T17:01:57.316Z,2.40
2022-09-23T17:04:23.843Z,1.73
2022-09-23T17:06:52.487Z,1.85
2022-09-23T17:09:26.220Z,1.80
2022-09-23T17:12:12.138Z,1.70
2022-09-23T17:14:42.111Z,1.63
2022-09-23T17:17:08.891Z,2.03
2022-09-23T17:19:37.381Z,1.90
2022-09-23T17:22:03.846Z,1.98
2022-09-23T17:24:30.281Z,1.42
2022-09-23T17:26:56.713Z,1.45
2022-09-23T17:29:23.210Z,1.90
2022-09-23T17:31:49.881Z,1.65
2022-09-23T17:34:18.688Z,1.67
2022-09-23T17:36:45.441Z,1.70
2022-09-23T17:39:12.719Z,2.00
2022-09-23T17:41:39.266Z,1.80
2022-09-23T17:44:05.711Z,2.10
2022-09-23T17:46:32.430Z,1.70
2022-09-23T17:48:58.871Z,1.90
2022-09-23T17:51:25.508Z,1.75
2022-09-23T17:53:52.270Z,1.60
2022-09-23T17:56:26.541Z,2.10
2022-09-23T17:58:54.075Z,1.80
2022-09-23T18:01:25.222Z,2.25
2022-09-23T18:04:02.019Z,2.20
2022-09-23T18:06:35.509Z,2.25
2022-09-23T18:09:04.797Z,2.47
2022-09-23T18:11:35.115Z,3.47
2022-09-23T18:14:05.322Z,9.20
2022-09-23T18:16:36.269Z,5.60
2022-09-23T18:19:04.212Z,11.43
2022-09-23T18:21:33.618Z,20.05
2022-09-23T18:24:28.226Z,9.27
2022-09-23T18:26:49.720Z,9.95
2022-09-23T18:29:16.537Z,6.95
2022-09-23T18:31:44.141Z,5.22
2022-09-23T18:34:12.940Z,4.90
2022-09-23T18:36:39.796Z,6.82
2022-09-23T18:39:06.856Z,6.57
2022-09-23T18:41:34.106Z,6.57
2022-09-23T18:44:00.963Z,5.85
2022-09-23T18:46:29.756Z,7.55
2022-09-23T18:49:15.667Z,6.07
2022-09-23T18:51:56.185Z,4.70
2022-09-23T18:54:23.800Z,4.38
2022-09-23T18:56:52.585Z,2.75
2022-09-23T18:59:21.240Z,2.53
2022-09-23T19:01:50.066Z,2.60
2022-09-23T19:04:19.842Z,3.03
2022-09-23T19:06:47.268Z,3.13
2022-09-23T19:09:15.050Z,3.70
2022-09-23T19:11:41.551Z,3.58
2022-09-23T19:14:11.445Z,5.03
2022-09-23T19:16:39.943Z,5.57
2022-09-23T19:19:06.645Z,4.95
2022-09-23T19:21:33.880Z,4.07
2022-09-23T19:24:03.704Z,4.05
2022-09-23T19:26:39.229Z,5.18
2022-09-23T19:29:08.388Z,3.80
2022-09-23T19:31:40.604Z,3.80
2022-09-23T19:34:19.084Z,3.60
2022-09-23T19:36:47.362Z,4.40
2022-09-23T19:39:22.208Z,3.38
2022-09-23T19:41:51.232Z,4.32
2022-09-23T19:44:19.823Z,4.20
2022-09-23T19:46:51.688Z,5.32
2022-09-23T19:49:21.403Z,4.63
2022-09-23T19:51:47.855Z,4.07
2022-09-23T19:54:21.139Z,4.85
2022-09-23T19:56:50.772Z,4.20
2022-09-23T19:59:19.083Z,4.82
2022-09-23T20:01:47.697Z,4.55
2022-09-23T20:04:15.648Z,5.07
2022-09-23T20:06:42.144Z,5.82
2022-09-23T20:09:08.693Z,6.22
2022-09-23T20:11:35.711Z,5.40
2022-09-23T20:14:03.811Z,6.18
2022-09-23T20:16:32.989Z,5.47
2022-09-23T20:19:00.669Z,5.28
2022-09-23T20:21:29.046Z,4.82
2022-09-23T20:23:56.057Z,6.38
2022-09-23T20:26:41.227Z,7.28
2022-09-23T20:29:08.861Z,9.60
2022-09-23T20:31:35.488Z,9.60
2022-09-23T20:34:05.465Z,11.20
2022-09-23T20:36:33.141Z,11.93
2022-09-23T20:39:01.337Z,6.35
2022-09-23T20:41:30.051Z,10.82
2022-09-23T20:43:59.430Z,11.13
2022-09-23T20:46:29.360Z,7.03
2022-09-23T20:48:56.819Z,6.90
2022-09-23T20:51:24.840Z,6.35
2022-09-23T20:53:52.824Z,8.60
2022-09-23T20:56:23.133Z,6.78
2022-09-23T20:58:50.791Z,4.60
2022-09-23T21:01:18.008Z,7.07
2022-09-23T21:03:47.387Z,6.53
2022-09-23T21:06:15.735Z,6.10
2022-09-23T21:08:43.493Z,4.25
2022-09-23T21:11:15.965Z,4.63
2022-09-23T21:13:47.684Z,4.53
2022-09-23T21:16:16.181Z,5.10
2022-09-23T21:18:43.277Z,4.53
2022-09-23T21:21:12.120Z,3.88
2022-09-23T21:23:39.296Z,4.32
2022-09-23T21:26:14.866Z,4.85
2022-09-23T21:28:43.345Z,3.72
2022-09-23T21:31:13.156Z,3.58
2022-09-23T21:33:39.778Z,4.03
2022-09-23T21:36:07.116Z,3.42
2022-09-23T21:38:37.553Z,4.25
2022-09-23T21:41:10.389Z,3.50
2022-09-23T21:43:40.031Z,4.03
2022-09-23T21:46:09.819Z,4.30
2022-09-23T21:48:42.405Z,4.13
2022-09-23T21:51:15.123Z,3.70
2022-09-23T21:53:43.064Z,3.80
2022-09-23T21:56:11.218Z,4.03
2022-09-23T21:58:39.539Z,4.30
2022-09-23T22:01:15.214Z,3.55
2022-09-23T22:03:43.358Z,3.80
2022-09-23T22:06:21.492Z,3.55
2022-09-23T22:08:59.806Z,3.60
2022-09-23T22:11:49.170Z,3.80
2022-09-23T22:14:17.847Z,3.63
2022-09-23T22:16:44.531Z,3.92
2022-09-23T22:19:13.515Z,3.78
2022-09-23T22:21:41.663Z,4.68
2022-09-23T22:24:09.453Z,3.47
2022-09-23T22:26:38.812Z,3.33
2022-09-23T22:29:25.605Z,3.60
2022-09-23T22:34:49.408Z,3.90
2022-09-23T22:37:25.590Z,4.30
2022-09-23T22:39:52.428Z,3.50
2022-09-23T22:42:21.225Z,3.75
2022-09-23T22:44:48.459Z,3.45
2022-09-23T22:47:15.558Z,3.78
2022-09-23T22:49:42.861Z,3.80
2022-09-23T22:52:11.173Z,3.45
2022-09-23T22:54:37.907Z,3.95
2022-09-23T22:57:06.035Z,3.30
2022-09-23T22:59:33.139Z,3.80
2022-09-23T23:02:02.305Z,4.00
2022-09-23T23:04:30.225Z,4.05
2022-09-23T23:06:58.592Z,3.53
2022-09-23T23:09:25.117Z,4.43
2022-09-23T23:11:51.545Z,3.50
2022-09-23T23:14:18.600Z,4.25
2022-09-23T23:16:46.272Z,4.40
2022-09-23T23:19:17.005Z,3.80
2022-09-23T23:21:45.341Z,4.10
2022-09-23T23:24:24.605Z,4.72
2022-09-23T23:26:51.921Z,5.30
2022-09-23T23:29:20.131Z,7.10
2022-09-23T23:31:47.107Z,7.03
2022-09-23T23:34:16.239Z,5.63
2022-09-23T23:36:44.010Z,5.68
2022-09-23T23:39:11.027Z,5.82
2022-09-23T23:41:39.421Z,5.55
2022-09-23T23:44:06.425Z,4.95
2022-09-23T23:46:33.134Z,5.05
2022-09-23T23:49:00.222Z,4.43
2022-09-23T23:51:27.503Z,4.22
2022-09-23T23:53:55.183Z,4.45
2022-09-23T23:56:23.773Z,4.70
2022-09-23T23:58:55.481Z,4.05
